Saint Paul, MN (55101)

9:01 AM CST on February 23, 2017 (GMT -0600)
Mounds Park, East Metro | | Change Station
Active Advisory: Winter Storm Watch

Elev 850 ft 44.95 °N, 93.06 °W | Updated 12 seconds ago

Overcast
Overcast
31.6 °F
Feels Like 32 °F
N
0.2
Wind Variable Wind from West
Gusts 2.5 mph

Today
High -- | Low -- °F
--% Chance of Precip.
Yesterday
High -- | Low -- °F
Precip. -- in
Pressure 29.96 in
Visibility 10.0 miles
Clouds Overcast 1500 ft
Windchill 32 °F
Dew Point 23 °F
Humidity 70%
Rainfall 0.00 in
Snow Depth Not available.
6:59 AM 5:52 PM
Waning Crescent, 10% visible
METAR KSTP 231453Z 01011KT 10SM OVC015 M01/M03 A2995 RMK AO2 SLP145 T10061033 53014
Pressure 29.96 in
Visibility 10.0 miles
Clouds Overcast 1500 ft
Windchill 32 °F
Dew Point 23 °F
Humidity 70%
Rainfall 0.00 in
Snow Depth Not available.
6:59 AM 5:52 PM
Waning Crescent, 10% visible
METAR KSTP 231453Z 01011KT 10SM OVC015 M01/M03 A2995 RMK AO2 SLP145 T10061033 53014

Get Your Daily Forecast Email!

Thanks for signing up!

Be on the lookout for a verification email in your inbox.

You'll start receiving the daily forecast at 8 AM.

×

10-Day Weather Forecast

Almanac

Astronomy

Feb. 23, 2017 Rise Set
Actual Time
Civil Twilight
Nautical Twilight
Astronomical Twilight
Moon
Length of Visible Light
Length of Day
Tomorrow will be .
, % of the Moon is Illuminated

Today's Extremes

State Highs State Lows

Community

WunderPhotos

Upload Photos

1,962,540 photos uploaded!

WunderBlog® & News

Nearby

Air Quality

  Air Quality AQ Index Pollutant
Not available.

Snow Depth

Station Depth Elevation

Earthquake Activity

City Distance Mag. Time & Date
Minimum magnitude displayed is 2.5.

Coastal Water Temperatures

Place Temperature

Stations

Nearby Weather Stations

Station Location Temp. Windchill Dew Point Humidity Wind Precip. Elev Updated Type
                   

Watches & Warnings

Winter Storm Watch
Issued: 4:27 AM CST Feb. 23, 2017 – National Weather Service

... Winter Storm Watch now in effect from this evening through
late Friday night...

* timing... snow will spread into the area between 10pm and 2am
tonight.

* Snow accumulations... 4 to 8 inches are possible.

* Winds... northeast to northwest 20 to 30 mph with gusts to 40 mph
resulting in considerable blowing and drifting snow.

Precautionary/preparedness actions...

A Winter Storm Watch means there is a potential for significant
snow... sleet... or ice accumulations that may impact travel.
Continue to monitor the latest forecasts.